Time;durP1;ratioP1;P1;durP2;ratioP2;P2;SDS_P1;SDS_P2;PMS_P1;PMS_P2;Temp;Humidity;BMP_temperature;BMP_pressure;BME280_temperature;BME280_humidity;BME280_pressure;Samples;Min_cycle;Max_cycle;Signal;HPM_P1;HPM_P2
2022/10/25 00:00:19;;;;;;;1.00;0.83;;;21.90;99.90;;;;;;5039814;28;20473;-54
2022/10/25 00:02:47;;;;;;;1.30;0.80;;;21.90;99.90;;;;;;5039183;28;20474;-55
2022/10/25 00:05:15;;;;;;;1.00;0.80;;;21.90;99.90;;;;;;5037242;28;20829;-56
2022/10/25 00:07:42;;;;;;;1.80;0.90;;;21.90;99.90;;;;;;5033059;28;20814;-56
2022/10/25 00:10:09;;;;;;;1.07;0.90;;;21.90;99.90;;;;;;5037009;28;20478;-56
2022/10/25 00:12:41;;;;;;;1.07;0.80;;;21.90;99.90;;;;;;5041291;28;20453;-52
2022/10/25 00:15:10;;;;;;;1.20;0.90;;;21.90;99.90;;;;;;5037147;28;20457;-52
2022/10/25 00:17:36;;;;;;;1.00;0.80;;;21.90;99.90;;;;;;5039249;28;20465;-55
2022/10/25 00:20:05;;;;;;;1.03;0.73;;;21.90;99.90;;;;;;5037040;28;20465;-55
2022/10/25 00:22:32;;;;;;;1.23;0.73;;;21.90;99.90;;;;;;5047287;28;20461;-54
2022/10/25 00:24:59;;;;;;;1.33;0.80;;;21.90;99.90;;;;;;5048355;28;20829;-52
2022/10/25 00:27:26;;;;;;;1.00;0.80;;;21.90;99.90;;;;;;5037113;28;20454;-55
2022/10/25 00:29:52;;;;;;;1.30;1.00;;;21.80;99.90;;;;;;5040526;28;20484;-53
2022/10/25 00:32:19;;;;;;;1.00;0.80;;;21.80;99.90;;;;;;5041605;28;20456;-54
2022/10/25 00:34:46;;;;;;;1.20;0.80;;;21.80;99.90;;;;;;5048070;28;20446;-50
2022/10/25 00:37:14;;;;;;;1.30;0.80;;;21.80;99.90;;;;;;5046405;28;21038;-54
2022/10/25 00:39:41;;;;;;;1.20;0.97;;;21.80;99.90;;;;;;5041517;28;20458;-51
2022/10/25 00:42:11;;;;;;;0.90;0.73;;;21.80;99.90;;;;;;5038181;28;20462;-56
2022/10/25 00:44:49;;;;;;;1.27;0.80;;;21.70;99.90;;;;;;5042793;28;20464;-53
2022/10/25 00:47:42;;;;;;;1.10;0.90;;;21.70;99.90;;;;;;5039434;28;20489;-56
2022/10/25 00:50:18;;;;;;;1.83;0.70;;;21.70;99.90;;;;;;5044570;28;20496;-55
2022/10/25 00:52:51;;;;;;;1.40;1.10;;;21.70;99.90;;;;;;5037005;28;20457;-57
2022/10/25 00:55:21;;;;;;;1.00;0.80;;;21.70;99.90;;;;;;5039690;28;20459;-48
2022/10/25 00:57:53;;;;;;;1.00;0.73;;;21.70;99.90;;;;;;5042229;28;20457;-53
2022/10/25 01:00:20;;;;;;;1.00;0.80;;;21.60;99.90;;;;;;5046173;28;20443;-56
2022/10/25 01:02:47;;;;;;;3.90;0.93;;;21.60;99.90;;;;;;5044930;28;20516;-54
2022/10/25 01:05:16;;;;;;;1.20;0.80;;;21.60;99.90;;;;;;5041953;28;20455;-54
2022/10/25 01:07:43;;;;;;;2.80;1.00;;;21.60;99.90;;;;;;5048321;28;20290;-55
2022/10/25 01:10:12;;;;;;;1.67;0.90;;;21.60;99.90;;;;;;5034918;28;21015;-51
2022/10/25 01:12:38;;;;;;;1.00;0.80;;;21.60;99.90;;;;;;5041080;28;20993;-53
2022/10/25 01:15:06;;;;;;;1.83;1.13;;;21.60;99.90;;;;;;5038395;28;20462;-51
2022/10/25 01:17:41;;;;;;;1.10;1.00;;;21.60;99.90;;;;;;5038941;28;20481;-56
2022/10/25 01:20:43;;;;;;;0.90;0.70;;;21.60;99.90;;;;;;5044611;28;20535;-53
2022/10/25 01:23:27;;;;;;;1.00;0.77;;;21.50;99.90;;;;;;5031901;28;20445;-55
2022/10/25 01:26:24;;;;;;;1.20;0.90;;;21.50;99.90;;;;;;5042576;28;20485;-54
2022/10/25 01:29:13;;;;;;;1.07;0.80;;;21.50;99.90;;;;;;5043737;28;20519;-53
2022/10/25 01:31:45;;;;;;;0.97;0.70;;;21.50;99.90;;;;;;5034894;28;20968;-52
2022/10/25 01:34:16;;;;;;;1.10;0.90;;;21.50;99.90;;;;;;5040375;28;20473;-53
2022/10/25 01:36:48;;;;;;;1.25;0.75;;;21.50;99.90;;;;;;5039410;28;20458;-55
2022/10/25 01:39:20;;;;;;;1.80;1.63;;;21.50;99.90;;;;;;5037950;28;20195;-54
2022/10/25 01:41:57;;;;;;;0.90;0.70;;;21.40;99.90;;;;;;5035452;28;20474;-53
2022/10/25 01:44:35;;;;;;;1.17;0.70;;;21.40;99.90;;;;;;5040864;28;20445;-53
2022/10/25 01:47:05;;;;;;;1.10;0.80;;;21.50;99.90;;;;;;5039942;28;20454;-54
2022/10/25 01:49:41;;;;;;;1.10;0.80;;;21.40;99.90;;;;;;5044155;28;20210;-55
2022/10/25 01:52:08;;;;;;;1.10;0.70;;;21.40;99.90;;;;;;5038590;28;20505;-51
2022/10/25 01:54:35;;;;;;;1.00;0.70;;;21.40;99.90;;;;;;5044478;28;20454;-56
2022/10/25 01:57:26;;;;;;;1.00;0.70;;;21.40;99.90;;;;;;5043520;28;20465;-54
2022/10/25 02:00:06;;;;;;;1.10;0.80;;;21.40;99.90;;;;;;5049113;28;20520;-52
2022/10/25 02:02:45;;;;;;;0.90;0.70;;;21.40;99.90;;;;;;5044042;28;20485;-56
2022/10/25 02:05:17;;;;;;;1.00;0.80;;;21.40;99.90;;;;;;5033113;28;20210;-53
2022/10/25 02:07:50;;;;;;;1.10;0.63;;;21.40;99.90;;;;;;5046073;28;20450;-55
2022/10/25 02:10:23;;;;;;;1.80;0.70;;;21.30;99.90;;;;;;5043316;28;20230;-51
2022/10/25 02:12:56;;;;;;;1.10;0.73;;;21.40;99.90;;;;;;5050476;28;20462;-53
2022/10/25 02:15:30;;;;;;;1.23;1.13;;;21.30;99.90;;;;;;5044648;28;20200;-55
2022/10/25 02:18:02;;;;;;;1.00;0.80;;;21.30;99.90;;;;;;5042412;28;20231;-47
2022/10/25 02:20:32;;;;;;;0.90;0.70;;;21.30;99.90;;;;;;5041683;28;20202;-55
2022/10/25 02:23:02;;;;;;;1.30;0.83;;;21.30;99.90;;;;;;5042923;28;20209;-52
2022/10/25 02:25:32;;;;;;;1.30;0.80;;;21.30;99.90;;;;;;5042796;28;20458;-51
2022/10/25 02:28:01;;;;;;;1.00;0.73;;;21.30;99.90;;;;;;5040189;28;20466;-51
2022/10/25 02:30:29;;;;;;;1.00;0.80;;;21.30;99.90;;;;;;5037938;28;20227;-56
2022/10/25 02:32:57;;;;;;;0.90;0.80;;;21.30;99.90;;;;;;5038728;28;20207;-53
2022/10/25 02:35:24;;;;;;;1.75;0.80;;;21.20;99.90;;;;;;5040298;28;20191;-52
2022/10/25 02:37:51;;;;;;;1.20;0.80;;;21.20;99.90;;;;;;5036203;28;20570;-55
2022/10/25 02:40:17;;;;;;;1.20;0.90;;;21.20;99.90;;;;;;5039011;28;20207;-53
2022/10/25 02:42:44;;;;;;;1.20;0.88;;;21.20;99.90;;;;;;5037197;28;20244;-55
2022/10/25 02:45:11;;;;;;;1.20;0.90;;;21.20;99.90;;;;;;5043035;28;20203;-56
2022/10/25 02:47:38;;;;;;;1.13;0.90;;;21.20;99.90;;;;;;5038263;28;20233;-52
2022/10/25 02:50:06;;;;;;;1.00;0.80;;;21.20;99.90;;;;;;5040783;28;20274;-53
2022/10/25 02:52:33;;;;;;;0.90;0.70;;;21.10;99.90;;;;;;5035074;28;20195;-56
2022/10/25 02:55:00;;;;;;;1.15;0.80;;;21.20;99.90;;;;;;5043593;28;20198;-53
2022/10/25 02:57:31;;;;;;;2.65;1.17;;;21.10;99.90;;;;;;5039995;28;20203;-56
2022/10/25 02:59:58;;;;;;;1.10;0.70;;;21.10;99.90;;;;;;5033444;28;20204;-54
2022/10/25 03:02:25;;;;;;;1.13;0.73;;;21.10;99.90;;;;;;5037579;28;20462;-49
2022/10/25 03:04:51;;;;;;;0.90;0.70;;;21.10;99.90;;;;;;5043594;28;20198;-51
2022/10/25 03:07:19;;;;;;;1.98;1.00;;;21.10;99.90;;;;;;5034433;28;20207;-53
2022/10/25 03:09:46;;;;;;;0.88;0.70;;;21.10;99.90;;;;;;5034763;28;20646;-56
2022/10/25 03:12:13;;;;;;;1.10;0.70;;;21.10;99.90;;;;;;5036821;28;20210;-55
2022/10/25 03:14:39;;;;;;;0.90;0.70;;;21.10;99.90;;;;;;5030927;28;20196;-50
2022/10/25 03:17:07;;;;;;;0.90;0.70;;;21.00;99.90;;;;;;5037685;28;20222;-50
2022/10/25 03:19:33;;;;;;;0.90;0.73;;;21.00;99.90;;;;;;5042665;28;20202;-54
2022/10/25 03:22:00;;;;;;;1.15;0.77;;;21.00;99.90;;;;;;5038963;28;20551;-55
2022/10/25 03:24:28;;;;;;;0.90;0.70;;;21.00;99.90;;;;;;5040091;28;20207;-55
2022/10/25 03:26:55;;;;;;;1.20;1.08;;;21.10;99.90;;;;;;5033327;28;20203;-56
2022/10/25 03:29:21;;;;;;;1.13;0.80;;;21.00;99.90;;;;;;5033992;28;20645;-56
2022/10/25 03:31:48;;;;;;;1.15;0.82;;;21.00;99.90;;;;;;5037251;28;20230;-54
2022/10/25 03:34:15;;;;;;;1.10;0.80;;;21.00;99.90;;;;;;5037926;28;20199;-50
2022/10/25 03:36:41;;;;;;;1.00;0.70;;;21.00;99.90;;;;;;5040767;28;20202;-54
2022/10/25 03:39:08;;;;;;;1.20;0.70;;;21.00;99.90;;;;;;5042276;28;20188;-53
2022/10/25 03:41:36;;;;;;;0.95;0.70;;;21.00;99.90;;;;;;5039094;28;20210;-53
2022/10/25 03:44:03;;;;;;;1.48;0.80;;;20.90;99.90;;;;;;5042608;28;20215;-51
2022/10/25 03:46:30;;;;;;;0.90;0.70;;;21.10;99.90;;;;;;5041043;28;20196;-54
2022/10/25 03:48:57;;;;;;;0.93;0.68;;;21.50;99.90;;;;;;5039625;28;20206;-54
2022/10/25 03:51:24;;;;;;;1.00;0.80;;;21.60;99.90;;;;;;5041430;28;20227;-56
2022/10/25 03:53:50;;;;;;;1.00;0.70;;;21.70;99.90;;;;;;5045295;28;20191;-52
2022/10/25 03:56:17;;;;;;;0.90;0.70;;;21.70;99.90;;;;;;5045381;28;20469;-54
2022/10/25 03:58:45;;;;;;;0.97;0.83;;;21.70;99.90;;;;;;5043096;28;20822;-58
2022/10/25 04:01:12;;;;;;;1.10;0.90;;;21.60;99.90;;;;;;5044141;28;20462;-53
2022/10/25 04:03:38;;;;;;;0.90;0.70;;;21.50;99.90;;;;;;5043968;28;20464;-51
2022/10/25 04:06:05;;;;;;;0.90;0.63;;;21.40;99.90;;;;;;5043967;28;20461;-55
2022/10/25 04:08:32;;;;;;;1.10;0.80;;;21.40;99.90;;;;;;5052081;28;20925;-56
2022/10/25 04:10:59;;;;;;;1.00;0.80;;;21.40;99.90;;;;;;5043185;28;20481;-53
2022/10/25 04:13:25;;;;;;;1.83;0.80;;;21.30;99.90;;;;;;5050967;28;20458;-55
2022/10/25 04:15:53;;;;;;;1.33;0.80;;;21.30;99.90;;;;;;5041032;28;20961;-55
2022/10/25 04:18:21;;;;;;;1.07;0.80;;;21.30;99.90;;;;;;5048970;28;20468;-56
2022/10/25 04:20:47;;;;;;;1.40;1.00;;;21.30;99.90;;;;;;5039955;28;20833;-48
2022/10/25 04:23:14;;;;;;;1.20;0.87;;;21.20;99.90;;;;;;5035252;28;20485;-56
2022/10/25 04:25:41;;;;;;;1.23;0.88;;;21.20;99.90;;;;;;5046606;28;20470;-52
2022/10/25 04:28:07;;;;;;;1.00;0.70;;;21.20;99.90;;;;;;5043261;28;20206;-55
2022/10/25 04:30:34;;;;;;;1.00;0.60;;;21.20;99.90;;;;;;5037587;28;21007;-56
2022/10/25 04:33:02;;;;;;;1.10;0.90;;;21.20;99.90;;;;;;5042427;28;20457;-51
2022/10/25 04:35:29;;;;;;;1.07;0.90;;;21.20;99.90;;;;;;5042232;28;20199;-50
2022/10/25 04:37:57;;;;;;;0.95;0.70;;;21.20;99.90;;;;;;5053689;28;20461;-55
2022/10/25 04:40:24;;;;;;;1.00;0.80;;;21.20;99.90;;;;;;5046327;28;20207;-52
2022/10/25 04:42:51;;;;;;;1.20;0.90;;;21.20;99.90;;;;;;5033225;28;20218;-52
2022/10/25 04:45:17;;;;;;;1.10;0.70;;;21.20;99.90;;;;;;5037716;28;20192;-50
2022/10/25 04:47:44;;;;;;;0.93;0.73;;;21.20;99.90;;;;;;5050424;28;20195;-55
2022/10/25 04:50:12;;;;;;;0.93;0.70;;;21.20;99.90;;;;;;5041327;28;20523;-54
2022/10/25 04:52:39;;;;;;;1.10;0.83;;;21.20;99.90;;;;;;5036640;28;21004;-56
2022/10/25 04:55:06;;;;;;;1.00;0.70;;;21.20;99.90;;;;;;5042042;28;20454;-53
2022/10/25 04:57:32;;;;;;;1.02;0.75;;;21.20;99.90;;;;;;5037573;28;20195;-57
2022/10/25 04:59:59;;;;;;;1.13;0.70;;;21.30;99.90;;;;;;5043842;28;20744;-51
2022/10/25 05:02:26;;;;;;;1.40;0.80;;;21.60;99.90;;;;;;5046853;28;20458;-56
2022/10/25 05:04:53;;;;;;;1.20;0.67;;;21.80;99.90;;;;;;5041072;28;20465;-52
2022/10/25 05:07:21;;;;;;;1.00;0.77;;;21.90;99.90;;;;;;5037819;28;20454;-50
2022/10/25 05:09:48;;;;;;;0.90;0.60;;;22.00;99.90;;;;;;5046317;28;20458;-52
2022/10/25 05:12:15;;;;;;;1.03;0.90;;;22.10;99.90;;;;;;5044017;28;20481;-49
2022/10/25 05:14:42;;;;;;;1.00;0.70;;;22.20;99.90;;;;;;5040431;28;20782;-55
2022/10/25 05:17:09;;;;;;;0.90;0.70;;;22.20;99.90;;;;;;5047448;28;20476;-56
2022/10/25 05:19:36;;;;;;;1.10;0.90;;;22.20;99.90;;;;;;5040766;28;20454;-52
2022/10/25 05:22:02;;;;;;;1.10;0.80;;;22.30;99.90;;;;;;5045992;28;20828;-56
2022/10/25 05:24:31;;;;;;;1.03;0.83;;;22.30;99.90;;;;;;5041235;28;20515;-58
2022/10/25 05:26:57;;;;;;;1.30;0.90;;;22.20;99.90;;;;;;5046979;28;20462;-54
2022/10/25 05:29:24;;;;;;;0.90;0.70;;;22.20;99.90;;;;;;5035501;28;20466;-55
2022/10/25 05:31:51;;;;;;;0.90;0.60;;;22.20;99.90;;;;;;5036928;28;20485;-56
2022/10/25 05:34:17;;;;;;;0.97;0.80;;;22.20;99.90;;;;;;5039945;28;20492;-57
2022/10/25 05:36:44;;;;;;;0.90;0.77;;;22.20;99.90;;;;;;5041470;28;20488;-53
2022/10/25 05:39:11;;;;;;;1.00;0.80;;;22.20;99.90;;;;;;5038999;28;20466;-55
2022/10/25 05:41:39;;;;;;;1.20;0.80;;;22.10;99.90;;;;;;5041073;28;20465;-56
2022/10/25 05:44:05;;;;;;;0.80;0.60;;;22.10;99.90;;;;;;5042215;28;20945;-56
2022/10/25 05:46:32;;;;;;;1.10;0.80;;;22.10;99.90;;;;;;5046119;28;21164;-51
2022/10/25 05:49:00;;;;;;;1.10;0.80;;;22.00;99.90;;;;;;5034642;28;20996;-54
2022/10/25 05:51:28;;;;;;;0.80;0.63;;;22.00;99.90;;;;;;5034897;28;20505;-51
2022/10/25 05:53:56;;;;;;;1.10;0.80;;;22.00;99.90;;;;;;5040837;28;20461;-53
2022/10/25 05:56:25;;;;;;;2.37;0.70;;;22.00;99.90;;;;;;5041109;28;20464;-54
2022/10/25 05:58:55;;;;;;;0.90;0.70;;;22.00;99.90;;;;;;5040569;28;20836;-55
2022/10/25 06:01:22;;;;;;;1.00;0.80;;;21.90;99.90;;;;;;5039825;28;20462;-51
2022/10/25 06:03:50;;;;;;;0.97;0.70;;;21.90;99.90;;;;;;5034531;28;20541;-49
2022/10/25 06:06:17;;;;;;;0.90;0.70;;;21.90;99.90;;;;;;5038649;28;20953;-51
2022/10/25 06:08:45;;;;;;;1.20;0.90;;;21.80;99.90;;;;;;5040354;28;20507;-48
2022/10/25 06:11:14;;;;;;;0.90;0.70;;;21.80;99.90;;;;;;5043665;28;20987;-46
2022/10/25 06:13:41;;;;;;;0.90;0.80;;;21.80;99.90;;;;;;5036892;28;20464;-48
2022/10/25 06:16:12;;;;;;;0.90;0.73;;;21.80;99.90;;;;;;5033710;28;20454;-50
2022/10/25 06:18:39;;;;;;;0.90;0.70;;;21.70;99.90;;;;;;5034030;28;20504;-47
2022/10/25 06:21:08;;;;;;;0.90;0.80;;;21.80;99.90;;;;;;5036211;28;20463;-48
2022/10/25 06:23:35;;;;;;;1.00;0.70;;;21.80;99.90;;;;;;5043969;28;20457;-49
2022/10/25 06:26:04;;;;;;;1.00;0.60;;;21.80;99.90;;;;;;5045396;28;20490;-47
2022/10/25 06:28:30;;;;;;;1.00;0.80;;;21.80;99.90;;;;;;5039165;28;20450;-49
2022/10/25 06:31:01;;;;;;;0.90;0.60;;;21.80;99.90;;;;;;5037079;28;20462;-51
2022/10/25 06:33:29;;;;;;;1.10;0.83;;;21.80;99.90;;;;;;5044293;28;20457;-52
2022/10/25 06:35:56;;;;;;;0.90;0.80;;;21.80;99.90;;;;;;5039716;28;20972;-51
2022/10/25 06:38:23;;;;;;;0.90;0.70;;;21.90;99.90;;;;;;5046427;28;20453;-52
2022/10/25 06:40:49;;;;;;;1.20;0.80;;;21.90;99.90;;;;;;5036849;28;20852;-47
2022/10/25 06:43:16;;;;;;;0.80;0.60;;;21.90;99.90;;;;;;5038782;28;20573;-51
2022/10/25 06:45:43;;;;;;;1.00;0.70;;;21.90;99.90;;;;;;5034762;28;20949;-50
2022/10/25 06:48:10;;;;;;;1.13;1.03;;;21.90;99.90;;;;;;5042312;28;20945;-49
2022/10/25 06:50:38;;;;;;;1.10;0.80;;;21.90;99.90;;;;;;5037244;28;20460;-49
2022/10/25 06:53:04;;;;;;;0.87;0.67;;;21.90;99.90;;;;;;5038891;28;20486;-52
2022/10/25 06:55:31;;;;;;;1.00;0.70;;;22.00;99.90;;;;;;5046123;28;20469;-49
2022/10/25 06:57:58;;;;;;;0.90;0.60;;;22.00;99.90;;;;;;5039002;28;20820;-47
2022/10/25 07:00:25;;;;;;;1.20;0.80;;;22.00;99.90;;;;;;5038784;28;21113;-50
2022/10/25 07:02:55;;;;;;;1.00;0.90;;;22.00;99.90;;;;;;5039268;28;20457;-46
2022/10/25 07:05:21;;;;;;;0.90;0.60;;;22.00;99.90;;;;;;5037686;28;20490;-48
2022/10/25 07:07:50;;;;;;;0.90;0.70;;;22.00;99.90;;;;;;5045036;28;20589;-47
2022/10/25 07:10:17;;;;;;;1.10;0.90;;;22.00;99.90;;;;;;5040163;28;20461;-48
2022/10/25 07:12:44;;;;;;;0.90;0.70;;;22.00;99.90;;;;;;5038401;28;20880;-50
2022/10/25 07:15:11;;;;;;;0.80;0.60;;;22.10;99.90;;;;;;5043965;28;20464;-51
2022/10/25 07:17:38;;;;;;;0.90;0.67;;;22.10;99.90;;;;;;5040398;28;20481;-49
2022/10/25 07:20:05;;;;;;;1.17;0.70;;;22.10;99.90;;;;;;5042096;28;20438;-47
2022/10/25 07:22:33;;;;;;;1.77;0.80;;;22.10;99.90;;;;;;5037496;28;21296;-49
2022/10/25 07:25:01;;;;;;;1.10;0.83;;;22.10;99.90;;;;;;5043249;28;20453;-49
2022/10/25 07:27:27;;;;;;;0.90;0.63;;;22.10;99.90;;;;;;5046264;28;20458;-52
2022/10/25 07:29:54;;;;;;;1.00;0.77;;;22.10;99.90;;;;;;5042684;28;20442;-49
2022/10/25 07:32:21;;;;;;;1.17;0.70;;;22.10;99.90;;;;;;5036374;28;20868;-49
2022/10/25 07:34:47;;;;;;;1.00;0.70;;;22.10;99.90;;;;;;5044378;28;20465;-50
2022/10/25 07:37:14;;;;;;;1.00;0.70;;;22.10;99.90;;;;;;5040886;28;20454;-47
2022/10/25 07:39:41;;;;;;;1.00;0.80;;;22.10;99.90;;;;;;5043446;28;20457;-45
2022/10/25 07:42:09;;;;;;;2.60;1.00;;;22.10;99.90;;;;;;5045203;28;20454;-45
2022/10/25 07:44:35;;;;;;;1.50;0.90;;;22.00;99.90;;;;;;5050074;28;20465;-45
2022/10/25 07:47:02;;;;;;;0.90;0.70;;;22.10;99.90;;;;;;5037669;28;20473;-47
2022/10/25 07:49:29;;;;;;;1.10;0.73;;;22.10;99.90;;;;;;5052178;28;20963;-45
2022/10/25 07:51:56;;;;;;;0.90;0.70;;;22.10;99.90;;;;;;5049825;28;20477;-45
2022/10/25 07:54:22;;;;;;;1.77;0.70;;;22.00;99.90;;;;;;5051991;28;20458;-48
2022/10/25 07:56:49;;;;;;;0.90;0.70;;;22.10;99.90;;;;;;5050970;28;20648;-44
2022/10/25 07:59:17;;;;;;;1.10;0.90;;;22.10;99.90;;;;;;5054353;28;20441;-45
2022/10/25 08:01:44;;;;;;;1.10;0.70;;;22.10;99.90;;;;;;5047522;28;20458;-46
2022/10/25 08:04:11;;;;;;;1.00;0.73;;;22.10;99.90;;;;;;5042241;28;20457;-45
2022/10/25 08:06:37;;;;;;;1.57;0.80;;;22.10;99.90;;;;;;5052553;28;20847;-47
2022/10/25 08:09:04;;;;;;;1.00;0.70;;;22.10;99.90;;;;;;5048001;28;20458;-45
2022/10/25 08:11:31;;;;;;;1.43;0.87;;;22.10;99.90;;;;;;5049510;28;21714;-48
2022/10/25 08:13:57;;;;;;;0.87;0.63;;;22.10;99.90;;;;;;5041489;28;20956;-48
2022/10/25 08:16:25;;;;;;;2.30;0.80;;;22.10;99.90;;;;;;5046492;28;20870;-47
2022/10/25 08:18:52;;;;;;;2.73;0.80;;;22.10;99.90;;;;;;5051697;28;20457;-48
2022/10/25 08:21:19;;;;;;;1.20;0.80;;;22.10;99.90;;;;;;5047053;28;20469;-47
2022/10/25 08:23:45;;;;;;;1.20;0.80;;;22.10;99.90;;;;;;5044323;28;20458;-47
2022/10/25 08:26:12;;;;;;;1.47;0.80;;;22.10;99.90;;;;;;5051818;28;20959;-47
2022/10/25 08:28:39;;;;;;;1.23;0.93;;;22.10;99.90;;;;;;5040681;28;20484;-50
2022/10/25 08:31:06;;;;;;;1.73;0.83;;;22.10;99.90;;;;;;5047770;28;20437;-45
2022/10/25 08:33:35;;;;;;;2.27;0.83;;;22.10;99.90;;;;;;5043748;28;20513;-47
2022/10/25 08:36:02;;;;;;;1.73;1.20;;;22.20;99.90;;;;;;5033556;28;20469;-44
2022/10/25 08:38:28;;;;;;;2.40;0.90;;;22.20;99.90;;;;;;5047635;28;20457;-44
2022/10/25 08:41:03;;;;;;;1.20;0.80;;;22.30;99.90;;;;;;5051032;28;20944;-46
2022/10/25 08:43:59;;;;;;;2.50;0.93;;;22.30;99.90;;;;;;5037171;28;20460;-46
2022/10/25 08:46:31;;;;;;;3.23;1.00;;;22.30;99.90;;;;;;5043577;28;20458;-47
2022/10/25 08:49:10;;;;;;;6.77;1.27;;;22.40;99.90;;;;;;5037673;28;20870;-44
2022/10/25 08:51:40;;;;;;;2.23;1.00;;;22.50;99.90;;;;;;5037977;28;20832;-44
2022/10/25 08:54:31;;;;;;;2.10;0.90;;;22.40;99.90;;;;;;5037945;28;20813;-47
2022/10/25 08:57:07;;;;;;;4.03;2.37;;;22.50;99.90;;;;;;5039232;28;20968;-47
2022/10/25 08:59:38;;;;;;;1.97;1.00;;;22.50;99.90;;;;;;5046736;28;20449;-46
2022/10/25 09:02:16;;;;;;;1.90;1.40;;;22.60;99.90;;;;;;5044072;28;20457;-46
2022/10/25 09:04:44;;;;;;;2.13;1.30;;;22.70;99.90;;;;;;5041436;28;20473;-45
2022/10/25 09:07:22;;;;;;;1.90;1.40;;;22.60;99.90;;;;;;5036968;28;20473;-44
2022/10/25 09:09:55;;;;;;;3.20;1.53;;;22.70;99.90;;;;;;5037338;28;20492;-47
2022/10/25 09:12:28;;;;;;;2.30;1.23;;;22.70;99.90;;;;;;5042271;28;20477;-46
2022/10/25 09:15:01;;;;;;;3.43;0.90;;;22.70;99.90;;;;;;5035067;28;20508;-45
2022/10/25 09:17:38;;;;;;;1.57;1.00;;;22.70;99.90;;;;;;5044747;28;20476;-45
2022/10/25 09:20:15;;;;;;;1.90;1.40;;;22.70;99.90;;;;;;5048598;28;20798;-44
2022/10/25 09:22:46;;;;;;;2.30;1.07;;;22.70;99.90;;;;;;5037487;28;20812;-44
2022/10/25 09:25:21;;;;;;;1.37;1.10;;;22.70;99.90;;;;;;5046673;28;20985;-44
2022/10/25 09:27:57;;;;;;;4.73;1.23;;;22.70;99.90;;;;;;5048393;28;20441;-46
2022/10/25 09:30:24;;;;;;;3.30;1.03;;;22.70;99.90;;;;;;5033816;28;20546;-46
2022/10/25 09:32:55;;;;;;;4.57;1.33;;;22.70;99.90;;;;;;5049080;28;20477;-45
2022/10/25 09:35:28;;;;;;;2.77;1.20;;;22.70;99.90;;;;;;5046560;28;20756;-46
2022/10/25 09:37:59;;;;;;;1.70;1.10;;;22.70;99.90;;;;;;5052445;28;20797;-48
2022/10/25 09:40:32;;;;;;;1.37;1.10;;;22.70;99.90;;;;;;5042487;28;20477;-48
2022/10/25 09:43:05;;;;;;;2.53;1.23;;;22.60;99.90;;;;;;5052829;28;20813;-47
2022/10/25 09:45:39;;;;;;;5.43;2.63;;;22.60;99.90;;;;;;5038029;28;21210;-48
2022/10/25 09:48:15;;;;;;;2.53;1.67;;;22.60;99.90;;;;;;5033322;28;20477;-44
2022/10/25 09:50:47;;;;;;;6.33;1.53;;;22.60;99.90;;;;;;5039430;28;20461;-44
2022/10/25 09:53:16;;;;;;;9.40;1.60;;;22.60;99.90;;;;;;5052521;28;20481;-43
2022/10/25 09:55:50;;;;;;;17.93;2.33;;;22.50;99.90;;;;;;5041339;28;20531;-44
2022/10/25 09:58:20;;;;;;;18.33;2.20;;;22.50;99.90;;;;;;5045953;28;20476;-43
2022/10/25 10:00:47;;;;;;;9.00;2.40;;;22.50;99.90;;;;;;5047201;28;20825;-44
2022/10/25 10:03:14;;;;;;;6.00;1.30;;;22.50;99.90;;;;;;5035157;28;20462;-43
2022/10/25 10:05:47;;;;;;;6.70;1.53;;;22.50;99.90;;;;;;5043668;28;20453;-43
2022/10/25 10:08:14;;;;;;;5.87;1.60;;;22.50;99.90;;;;;;5045702;28;20446;-43
2022/10/25 10:10:41;;;;;;;2.30;1.10;;;22.60;99.90;;;;;;5047218;28;20453;-44
2022/10/25 10:13:16;;;;;;;2.73;1.10;;;22.50;99.90;;;;;;5039141;28;20496;-42
2022/10/25 10:15:51;;;;;;;2.20;1.10;;;22.50;99.90;;;;;;5041375;28;20457;-44
2022/10/25 10:18:26;;;;;;;5.97;1.30;;;22.50;99.90;;;;;;5041726;28;20460;-46
2022/10/25 10:21:00;;;;;;;2.77;1.33;;;22.50;99.90;;;;;;5045012;28;20514;-48
2022/10/25 10:23:29;;;;;;;4.20;1.53;;;22.60;99.90;;;;;;5037004;28;20454;-46
2022/10/25 10:25:59;;;;;;;4.97;1.47;;;22.60;99.90;;;;;;5050174;28;20457;-46
2022/10/25 10:28:26;;;;;;;3.97;1.33;;;22.60;99.90;;;;;;5037138;28;20995;-46
2022/10/25 10:30:55;;;;;;;1.90;1.27;;;22.60;99.90;;;;;;5038430;28;20496;-46
2022/10/25 10:33:22;;;;;;;1.67;1.17;;;22.60;99.90;;;;;;5045262;28;20477;-47
2022/10/25 10:35:54;;;;;;;1.87;1.23;;;22.70;99.90;;;;;;5051528;28;20495;-47
2022/10/25 10:38:25;;;;;;;1.60;1.10;;;22.70;99.90;;;;;;5045405;28;20466;-46
2022/10/25 10:40:54;;;;;;;2.23;1.50;;;22.70;99.90;;;;;;5044740;28;20469;-47
2022/10/25 10:43:30;;;;;;;1.83;1.30;;;22.70;99.90;;;;;;5041431;28;20977;-46
2022/10/25 10:46:03;;;;;;;3.53;1.13;;;22.70;99.90;;;;;;5039660;28;20446;-46
2022/10/25 10:48:35;;;;;;;2.83;1.20;;;22.80;99.90;;;;;;5039517;28;20936;-50
2022/10/25 10:51:03;;;;;;;2.03;1.20;;;22.80;99.90;;;;;;5039521;28;20457;-46
2022/10/25 10:53:32;;;;;;;4.10;1.43;;;22.80;99.90;;;;;;5042060;28;20474;-46
2022/10/25 10:56:00;;;;;;;3.00;1.50;;;22.80;99.90;;;;;;5038021;28;20458;-46
2022/10/25 10:58:29;;;;;;;2.70;1.00;;;22.80;99.90;;;;;;5041083;28;20868;-45
2022/10/25 11:00:58;;;;;;;2.50;1.27;;;22.80;99.90;;;;;;5046662;28;20454;-46
2022/10/25 11:03:45;;;;;;;1.60;1.07;;;22.80;99.90;;;;;;5045865;28;20466;-46
2022/10/25 11:06:15;;;;;;;1.97;1.20;;;22.80;99.90;;;;;;5049823;28;20817;-47
2022/10/25 11:08:46;;;;;;;1.70;1.50;;;22.90;99.90;;;;;;5048466;28;20446;-46
2022/10/25 11:11:18;;;;;;;2.37;1.10;;;22.90;99.90;;;;;;5039750;28;20469;-46
2022/10/25 11:13:53;;;;;;;1.90;1.07;;;22.80;99.90;;;;;;5032791;28;20581;-45
2022/10/25 11:16:39;;;;;;;1.77;1.10;;;22.90;99.90;;;;;;5043205;28;20481;-47
2022/10/25 11:19:16;;;;;;;0.90;0.80;;;22.90;99.90;;;;;;5049941;28;20872;-45
2022/10/25 11:21:56;;;;;;;1.73;1.03;;;22.90;99.90;;;;;;5043477;28;20446;-44
2022/10/25 11:24:34;;;;;;;2.40;1.00;;;23.00;99.90;;;;;;5034201;28;20466;-45
2022/10/25 11:27:10;;;;;;;1.83;1.13;;;22.90;99.90;;;;;;5049318;28;20441;-45
2022/10/25 11:29:56;;;;;;;1.30;1.10;;;22.90;99.90;;;;;;5041978;28;20461;-46
2022/10/25 11:32:45;;;;;;;1.97;1.20;;;22.90;99.90;;;;;;5047021;28;20464;-44
2022/10/25 11:35:27;;;;;;;3.00;1.10;;;22.90;99.90;;;;;;5047493;28;20957;-50
2022/10/25 11:38:01;;;;;;;3.10;1.10;;;22.90;99.90;;;;;;5046512;28;20515;-47
2022/10/25 11:40:32;;;;;;;1.20;0.90;;;23.00;99.90;;;;;;5045624;28;21769;-47
2022/10/25 11:43:09;;;;;;;8.03;1.20;;;23.00;99.90;;;;;;5046120;28;21067;-46
2022/10/25 11:45:41;;;;;;;2.77;1.20;;;23.00;99.90;;;;;;5047417;28;20469;-48
2022/10/25 11:48:34;;;;;;;2.80;1.07;;;23.00;99.90;;;;;;5050473;28;20452;-44
2022/10/25 11:51:08;;;;;;;2.03;0.93;;;23.00;99.90;;;;;;5043574;28;20461;-43
2022/10/25 11:53:52;;;;;;;2.50;1.03;;;23.00;99.90;;;;;;5049928;28;20472;-44
2022/10/25 11:56:31;;;;;;;1.10;0.90;;;23.00;99.90;;;;;;5046471;28;20844;-46
2022/10/25 11:59:08;;;;;;;1.20;1.00;;;23.00;99.90;;;;;;5048852;28;20457;-44
2022/10/25 12:01:56;;;;;;;1.67;0.87;;;23.00;99.90;;;;;;5050537;28;20442;-45
2022/10/25 12:04:52;;;;;;;1.30;1.00;;;23.00;99.90;;;;;;5048466;28;20465;-44
2022/10/25 12:07:24;;;;;;;1.60;1.10;;;23.00;99.90;;;;;;5047559;28;20491;-47
2022/10/25 12:10:01;;;;;;;1.40;1.10;;;23.00;99.90;;;;;;5034509;28;20465;-49
2022/10/25 12:12:39;;;;;;;1.43;1.20;;;23.00;99.90;;;;;;5036651;28;20481;-43
2022/10/25 12:15:11;;;;;;;1.20;0.90;;;23.00;99.90;;;;;;5043190;28;20876;-46
2022/10/25 12:17:38;;;;;;;1.20;1.10;;;23.00;99.90;;;;;;5049020;28;20477;-46
2022/10/25 12:20:11;;;;;;;1.30;1.17;;;23.10;99.90;;;;;;5048512;28;20457;-48
2022/10/25 12:22:41;;;;;;;1.20;0.80;;;23.10;99.90;;;;;;5044237;28;20817;-46
2022/10/25 12:25:18;;;;;;;2.20;0.90;;;23.00;99.90;;;;;;5043453;28;20528;-44
2022/10/25 12:27:48;;;;;;;2.53;1.10;;;23.10;99.90;;;;;;5042468;28;20457;-44
2022/10/25 12:30:17;;;;;;;1.53;0.80;;;23.00;99.90;;;;;;5044133;28;20523;-45
2022/10/25 12:32:51;;;;;;;2.30;0.90;;;23.10;99.90;;;;;;5050417;28;20463;-44
2022/10/25 12:35:21;;;;;;;1.53;0.90;;;23.00;99.90;;;;;;5049042;28;20449;-45
2022/10/25 12:37:53;;;;;;;1.67;0.80;;;23.00;99.90;;;;;;5051267;28;20450;-44
2022/10/25 12:40:22;;;;;;;1.03;0.93;;;23.00;99.90;;;;;;5037116;28;20458;-44
2022/10/25 12:42:54;;;;;;;1.00;0.80;;;23.00;99.90;;;;;;5042750;28;20458;-44
2022/10/25 12:45:48;;;;;;;1.43;0.83;;;23.10;99.90;;;;;;5053459;28;20470;-44
2022/10/25 12:48:33;;;;;;;1.23;0.90;;;23.00;99.90;;;;;;5043652;28;20519;-45
2022/10/25 12:51:13;;;;;;;3.93;1.47;;;23.00;99.90;;;;;;5046693;28;20465;-28
2022/10/25 12:54:05;;;;;;;5.17;1.90;;;21.00;99.90;;;;;;5036872;28;20988;-28
2022/10/25 12:56:44;;;;;;;4.05;1.70;;;19.60;99.90;;;;;;5042886;28;20960;-27
2022/10/25 12:59:28;;;;;;;6.38;1.77;;;19.30;99.90;;;;;;5035407;28;20291;-28
2022/10/25 13:02:12;;;;;;;3.25;1.73;;;19.10;99.90;;;;;;5037314;28;20195;-27
2022/10/25 13:04:53;;;;;;;2.88;1.27;;;19.00;99.90;;;;;;5042435;28;20586;-27